Time;durP1;ratioP1;P1;durP2;ratioP2;P2;SDS_P1;SDS_P2;PMS_P1;PMS_P2;Temp;Humidity;BMP_temperature;BMP_pressure;BME280_temperature;BME280_humidity;BME280_pressure;Samples;Min_cycle;Max_cycle;Signal;HPM_P1;HPM_P2
2024/02/01 00:00:52;;;;;;;23.83;14.90;;;;;;;;;;2088896;28;20410;-45
2024/02/01 00:01:53;;;;;;;25.92;15.25;;;;;;;;;;2088681;28;20021;-44
2024/02/01 00:02:54;;;;;;;28.75;16.65;;;;;;;;;;2089038;28;20028;-44
2024/02/01 00:03:56;;;;;;;26.02;15.55;;;;;;;;;;2087849;28;20036;-43
2024/02/01 00:04:57;;;;;;;29.95;16.90;;;;;;;;;;2088521;28;20021;-44
2024/02/01 00:05:58;;;;;;;26.77;16.13;;;;;;;;;;2087873;28;20516;-44
2024/02/01 00:06:59;;;;;;;28.75;16.25;;;;;;;;;;2088244;28;20014;-44
2024/02/01 00:08:01;;;;;;;28.27;14.50;;;;;;;;;;2082276;28;20040;-44
2024/02/01 00:09:02;;;;;;;26.73;15.55;;;;;;;;;;2088907;28;20028;-45
2024/02/01 00:10:04;;;;;;;25.45;14.70;;;;;;;;;;2079865;28;20021;-49
2024/02/01 00:11:05;;;;;;;28.17;15.80;;;;;;;;;;2079923;28;20101;-44
2024/02/01 00:12:07;;;;;;;29.17;16.00;;;;;;;;;;2088711;28;20039;-44
2024/02/01 00:13:09;;;;;;;27.63;15.40;;;;;;;;;;2088673;28;20012;-44
2024/02/01 00:14:10;;;;;;;27.95;16.30;;;;;;;;;;2088360;28;20476;-43
2024/02/01 00:15:13;;;;;;;27.45;15.40;;;;;;;;;;2088695;28;20112;-43
2024/02/01 00:16:31;;;;;;;28.92;16.05;;;;;;;;;;2088802;28;20021;-44
2024/02/01 00:17:48;;;;;;;27.42;15.75;;;;;;;;;;2087567;28;20033;-44
2024/02/01 00:18:49;;;;;;;26.23;15.43;;;;;;;;;;2087673;28;20204;-44
2024/02/01 00:19:50;;;;;;;28.75;16.58;;;;;;;;;;2079761;28;20105;-43
2024/02/01 00:20:52;;;;;;;25.45;15.00;;;;;;;;;;2086281;28;20450;-44
2024/02/01 00:21:53;;;;;;;27.85;15.63;;;;;;;;;;2087721;28;20515;-44
2024/02/01 00:22:54;;;;;;;30.23;16.92;;;;;;;;;;2087810;28;20041;-44
2024/02/01 00:23:55;;;;;;;24.83;16.52;;;;;;;;;;2087647;28;20047;-44
2024/02/01 00:24:57;;;;;;;30.23;16.77;;;;;;;;;;2087855;28;20033;-44
2024/02/01 00:25:58;;;;;;;26.70;15.30;;;;;;;;;;2087815;28;20472;-44
2024/02/01 00:26:59;;;;;;;24.75;15.13;;;;;;;;;;2087664;28;20025;-44
2024/02/01 00:28:01;;;;;;;25.08;15.35;;;;;;;;;;2090813;28;20024;-43
2024/02/01 00:29:02;;;;;;;28.10;15.73;;;;;;;;;;2088828;28;20029;-43
2024/02/01 00:30:03;;;;;;;28.60;15.68;;;;;;;;;;2087991;28;20025;-43
2024/02/01 00:31:05;;;;;;;27.17;16.63;;;;;;;;;;2087912;28;20021;-44
2024/02/01 00:32:06;;;;;;;29.08;16.52;;;;;;;;;;2087691;28;20063;-45
2024/02/01 00:33:07;;;;;;;29.05;15.63;;;;;;;;;;2087481;28;20541;-44
2024/02/01 00:34:08;;;;;;;25.42;15.32;;;;;;;;;;2087943;28;20025;-44
2024/02/01 00:35:10;;;;;;;26.80;15.35;;;;;;;;;;2087795;28;20013;-44
2024/02/01 00:36:11;;;;;;;25.75;16.35;;;;;;;;;;2088066;28;20071;-44
2024/02/01 00:37:12;;;;;;;26.15;15.98;;;;;;;;;;2087602;28;20021;-44
2024/02/01 00:38:13;;;;;;;28.45;15.70;;;;;;;;;;2079633;28;20108;-44
2024/02/01 00:39:15;;;;;;;28.13;15.95;;;;;;;;;;2079815;28;20072;-43
2024/02/01 00:40:16;;;;;;;26.60;15.68;;;;;;;;;;2079436;28;20135;-44
2024/02/01 00:41:17;;;;;;;27.88;16.67;;;;;;;;;;2079636;28;20025;-44
2024/02/01 00:42:19;;;;;;;28.45;16.20;;;;;;;;;;2079393;28;20380;-46
2024/02/01 00:43:20;;;;;;;26.60;15.23;;;;;;;;;;2087563;28;20021;-44
2024/02/01 00:44:21;;;;;;;28.85;16.33;;;;;;;;;;2079644;28;20025;-43
2024/02/01 00:45:23;;;;;;;28.17;15.90;;;;;;;;;;2079574;28;20017;-43
2024/02/01 00:46:24;;;;;;;29.77;15.77;;;;;;;;;;2087792;28;20071;-43
2024/02/01 00:47:26;;;;;;;24.42;14.85;;;;;;;;;;2079466;28;20022;-44
2024/02/01 00:48:27;;;;;;;26.25;16.20;;;;;;;;;;2079275;28;20028;-43
2024/02/01 00:49:28;;;;;;;26.48;16.08;;;;;;;;;;2087768;28;20048;-42
2024/02/01 00:50:30;;;;;;;26.00;15.60;;;;;;;;;;2087852;28;20029;-44
2024/02/01 00:51:31;;;;;;;27.95;16.83;;;;;;;;;;2087726;28;20025;-44
2024/02/01 00:52:32;;;;;;;29.88;15.68;;;;;;;;;;2087773;28;20024;-43
2024/02/01 00:53:33;;;;;;;29.70;16.20;;;;;;;;;;2079713;28;20044;-44
2024/02/01 00:54:37;;;;;;;25.83;15.48;;;;;;;;;;2083026;28;20228;-46
2024/02/01 00:55:38;;;;;;;26.50;15.25;;;;;;;;;;2087901;28;20138;-45
2024/02/01 00:56:39;;;;;;;26.55;16.38;;;;;;;;;;2079243;28;20041;-44
2024/02/01 00:57:40;;;;;;;28.25;15.57;;;;;;;;;;2079225;28;20028;-44
2024/02/01 00:58:42;;;;;;;27.23;16.17;;;;;;;;;;2087980;28;20032;-44
2024/02/01 00:59:43;;;;;;;27.67;16.23;;;;;;;;;;2079432;28;20014;-45
2024/02/01 01:00:45;;;;;;;25.00;16.02;;;;;;;;;;2079640;28;20103;-46
2024/02/01 01:01:46;;;;;;;27.25;15.43;;;;;;;;;;2087918;28;20029;-44
2024/02/01 01:02:47;;;;;;;23.60;14.80;;;;;;;;;;2087473;28;20394;-44
2024/02/01 01:03:48;;;;;;;29.67;16.90;;;;;;;;;;2087923;28;20637;-44
2024/02/01 01:04:50;;;;;;;24.27;15.30;;;;;;;;;;2087716;28;20052;-45
2024/02/01 01:05:51;;;;;;;30.42;16.42;;;;;;;;;;2087639;28;20017;-45
2024/02/01 01:06:52;;;;;;;27.45;16.13;;;;;;;;;;2087902;28;20017;-46
2024/02/01 01:07:53;;;;;;;29.65;16.40;;;;;;;;;;2087306;28;20041;-44
2024/02/01 01:08:55;;;;;;;27.05;16.08;;;;;;;;;;2087648;28;20521;-44
2024/02/01 01:09:56;;;;;;;26.15;15.88;;;;;;;;;;2087792;28;20482;-45
2024/02/01 01:10:57;;;;;;;29.88;16.63;;;;;;;;;;2087752;28;20029;-44
2024/02/01 01:11:58;;;;;;;26.60;16.10;;;;;;;;;;2087564;28;20088;-44
2024/02/01 01:13:00;;;;;;;25.75;15.23;;;;;;;;;;2079577;28;20404;-45
2024/02/01 01:14:01;;;;;;;25.92;16.05;;;;;;;;;;2079440;28;20028;-45
2024/02/01 01:15:02;;;;;;;28.42;16.30;;;;;;;;;;2087872;28;20020;-46
2024/02/01 01:16:04;;;;;;;27.75;15.77;;;;;;;;;;2089004;28;20021;-44
2024/02/01 01:17:06;;;;;;;26.83;14.98;;;;;;;;;;2088791;28;20392;-46
2024/02/01 01:18:07;;;;;;;27.95;16.98;;;;;;;;;;2089087;28;20028;-46
2024/02/01 01:19:09;;;;;;;31.77;15.85;;;;;;;;;;2089107;28;20087;-44
2024/02/01 01:20:10;;;;;;;27.27;14.90;;;;;;;;;;2088903;28;20435;-45
2024/02/01 01:21:12;;;;;;;24.42;14.60;;;;;;;;;;2089244;28;20036;-44
2024/02/01 01:22:14;;;;;;;25.73;15.35;;;;;;;;;;2089053;28;20051;-45
2024/02/01 01:23:15;;;;;;;26.65;15.73;;;;;;;;;;2089230;28;20049;-47
2024/02/01 01:24:16;;;;;;;25.83;15.25;;;;;;;;;;2089100;28;20024;-46
2024/02/01 01:25:18;;;;;;;27.17;15.18;;;;;;;;;;2088306;28;20527;-48
2024/02/01 01:26:20;;;;;;;28.08;14.68;;;;;;;;;;2080856;28;20079;-47
2024/02/01 01:27:22;;;;;;;24.17;15.50;;;;;;;;;;2085859;28;20407;-46
2024/02/01 01:28:23;;;;;;;28.00;15.85;;;;;;;;;;2090133;28;20068;-47
2024/02/01 01:29:24;;;;;;;29.48;16.00;;;;;;;;;;2090186;28;20045;-46
2024/02/01 01:30:26;;;;;;;27.10;15.45;;;;;;;;;;2089714;28;20029;-44
2024/02/01 01:31:27;;;;;;;29.58;16.02;;;;;;;;;;2089863;28;20547;-43
2024/02/01 01:32:28;;;;;;;30.15;16.33;;;;;;;;;;2090120;28;20025;-44
2024/02/01 01:33:29;;;;;;;27.75;15.65;;;;;;;;;;2090011;28;20384;-45
2024/02/01 01:34:31;;;;;;;23.02;14.90;;;;;;;;;;2089968;28;20167;-44
2024/02/01 01:35:32;;;;;;;27.25;15.75;;;;;;;;;;2090012;28;20549;-43
2024/02/01 01:36:33;;;;;;;26.75;15.18;;;;;;;;;;2088682;28;20022;-43
2024/02/01 01:37:36;;;;;;;26.75;16.30;;;;;;;;;;2089711;28;20032;-45
2024/02/01 01:38:37;;;;;;;26.98;14.57;;;;;;;;;;2089962;28;20025;-44
2024/02/01 01:39:39;;;;;;;29.50;16.10;;;;;;;;;;2089935;28;20049;-42
2024/02/01 01:40:40;;;;;;;27.42;16.05;;;;;;;;;;2090039;28;20029;-44
2024/02/01 01:41:45;;;;;;;26.67;15.63;;;;;;;;;;2089979;28;20044;-43
2024/02/01 01:42:46;;;;;;;27.30;15.15;;;;;;;;;;2089638;28;20009;-43
2024/02/01 01:43:47;;;;;;;26.42;14.90;;;;;;;;;;2082747;28;20385;-43
2024/02/01 01:44:48;;;;;;;27.70;15.38;;;;;;;;;;2084388;28;20380;-44
2024/02/01 01:45:56;;;;;;;24.95;14.35;;;;;;;;;;2089888;28;20525;-44
2024/02/01 01:46:58;;;;;;;29.08;15.48;;;;;;;;;;2074062;28;20119;-44
2024/02/01 01:47:59;;;;;;;27.45;15.70;;;;;;;;;;2075356;28;20540;-43
2024/02/01 01:49:00;;;;;;;24.63;14.35;;;;;;;;;;2089613;28;20749;-44
2024/02/01 01:50:01;;;;;;;26.35;15.43;;;;;;;;;;2089784;28;20487;-43
2024/02/01 01:51:04;;;;;;;29.50;16.08;;;;;;;;;;2089213;28;20152;-43
2024/02/01 01:52:05;;;;;;;24.95;15.23;;;;;;;;;;2089351;28;20021;-44
2024/02/01 01:53:08;;;;;;;25.42;15.10;;;;;;;;;;2089522;28;20444;-44
2024/02/01 01:54:10;;;;;;;26.90;14.82;;;;;;;;;;2090050;28;20021;-44
2024/02/01 01:55:11;;;;;;;24.95;15.55;;;;;;;;;;2089913;28;20021;-43
2024/02/01 01:56:13;;;;;;;27.55;15.38;;;;;;;;;;2089594;28;20025;-43
2024/02/01 01:57:14;;;;;;;26.98;15.02;;;;;;;;;;2080915;28;20124;-42
2024/02/01 01:58:15;;;;;;;23.15;15.00;;;;;;;;;;2080884;28;20017;-43
2024/02/01 01:59:17;;;;;;;24.40;15.25;;;;;;;;;;2089500;28;20032;-43
2024/02/01 02:00:18;;;;;;;27.73;15.75;;;;;;;;;;2089891;28;20348;-44
2024/02/01 02:01:19;;;;;;;22.98;14.88;;;;;;;;;;2080419;28;20436;-45
2024/02/01 02:02:21;;;;;;;26.75;15.40;;;;;;;;;;2072792;28;20038;-45
2024/02/01 02:03:27;;;;;;;27.92;15.52;;;;;;;;;;2081045;28;20022;-45
2024/02/01 02:04:28;;;;;;;31.58;15.50;;;;;;;;;;2089406;28;20025;-45
2024/02/01 02:05:29;;;;;;;28.58;15.77;;;;;;;;;;2090007;28;20013;-44
2024/02/01 02:06:31;;;;;;;24.23;14.23;;;;;;;;;;2084995;28;20024;-45
2024/02/01 02:07:32;;;;;;;24.98;15.43;;;;;;;;;;2089668;28;20049;-45
2024/02/01 02:08:33;;;;;;;23.55;14.98;;;;;;;;;;2089554;28;20155;-45
2024/02/01 02:09:34;;;;;;;27.88;14.68;;;;;;;;;;2089543;28;20553;-45
2024/02/01 02:10:36;;;;;;;29.33;16.15;;;;;;;;;;2089690;28;20056;-44
2024/02/01 02:11:37;;;;;;;25.17;14.77;;;;;;;;;;2089402;28;20017;-45
2024/02/01 02:12:38;;;;;;;24.70;14.88;;;;;;;;;;2089639;28;20558;-44
2024/02/01 02:13:46;;;;;;;28.55;15.88;;;;;;;;;;2080726;28;20441;-46
2024/02/01 02:15:00;;;;;;;26.42;14.93;;;;;;;;;;2089513;28;20472;-45
2024/02/01 02:16:01;;;;;;;23.83;14.52;;;;;;;;;;2093366;28;20008;-45
2024/02/01 02:17:04;;;;;;;28.80;14.93;;;;;;;;;;2089611;28;20079;-45
2024/02/01 02:18:09;;;;;;;23.77;15.13;;;;;;;;;;2089324;28;20092;-45
2024/02/01 02:19:11;;;;;;;25.73;15.45;;;;;;;;;;2089845;28;20025;-45
2024/02/01 02:20:16;;;;;;;27.15;15.57;;;;;;;;;;2080749;28;20018;-44
2024/02/01 02:21:18;;;;;;;31.40;14.73;;;;;;;;;;2081600;28;20025;-44
2024/02/01 02:22:20;;;;;;;24.00;14.13;;;;;;;;;;2089476;28;20112;-45
2024/02/01 02:23:22;;;;;;;25.73;15.55;;;;;;;;;;2080601;28;20017;-45
2024/02/01 02:24:23;;;;;;;27.75;14.32;;;;;;;;;;2080897;28;20411;-44
2024/02/01 02:25:24;;;;;;;23.55;14.57;;;;;;;;;;2089427;28;20044;-46
2024/02/01 02:26:26;;;;;;;26.17;14.95;;;;;;;;;;2089274;28;20037;-46
2024/02/01 02:27:27;;;;;;;24.92;15.48;;;;;;;;;;2088784;28;20039;-45
2024/02/01 02:28:28;;;;;;;28.13;14.73;;;;;;;;;;2089479;28;20180;-44
2024/02/01 02:29:30;;;;;;;25.08;15.10;;;;;;;;;;2088722;28;20464;-45
2024/02/01 02:30:31;;;;;;;24.15;14.75;;;;;;;;;;2091776;28;20024;-45
2024/02/01 02:31:33;;;;;;;24.63;14.52;;;;;;;;;;2089559;28;20521;-43
2024/02/01 02:32:35;;;;;;;24.67;14.60;;;;;;;;;;2089426;28;20480;-45
2024/02/01 02:33:37;;;;;;;25.88;14.57;;;;;;;;;;2089388;28;20574;-47
2024/02/01 02:34:38;;;;;;;26.13;14.73;;;;;;;;;;2084021;28;20410;-47
2024/02/01 02:35:39;;;;;;;24.40;15.25;;;;;;;;;;2089294;28;20024;-47
2024/02/01 02:36:41;;;;;;;25.70;14.82;;;;;;;;;;2089446;28;20422;-46
2024/02/01 02:37:49;;;;;;;24.92;14.32;;;;;;;;;;2089310;28;20024;-45
2024/02/01 02:38:51;;;;;;;24.80;13.75;;;;;;;;;;2089388;28;20029;-47
2024/02/01 02:39:52;;;;;;;22.20;14.48;;;;;;;;;;2089575;28;20021;-47
2024/02/01 02:40:54;;;;;;;26.20;15.18;;;;;;;;;;2088827;28;20021;-45
2024/02/01 02:41:55;;;;;;;23.17;13.77;;;;;;;;;;2088867;28;20021;-46
2024/02/01 02:42:56;;;;;;;29.77;15.32;;;;;;;;;;2089273;28;20021;-46
2024/02/01 02:43:58;;;;;;;25.50;14.55;;;;;;;;;;2082361;28;20021;-47
2024/02/01 02:44:59;;;;;;;27.95;14.32;;;;;;;;;;2089261;28;20021;-48
2024/02/01 02:46:00;;;;;;;25.30;14.82;;;;;;;;;;2089265;28;20005;-47
2024/02/01 02:47:02;;;;;;;22.08;14.45;;;;;;;;;;2080452;28;20036;-48
2024/02/01 02:48:05;;;;;;;24.40;14.90;;;;;;;;;;2083010;28;20017;-47
2024/02/01 02:49:08;;;;;;;25.85;14.57;;;;;;;;;;2080667;28;20029;-46
2024/02/01 02:50:09;;;;;;;24.38;14.85;;;;;;;;;;2088626;28;20017;-46
2024/02/01 02:51:11;;;;;;;22.35;14.13;;;;;;;;;;2096923;28;20449;-46
2024/02/01 02:52:12;;;;;;;25.25;14.57;;;;;;;;;;2089515;28;20065;-46
2024/02/01 02:53:13;;;;;;;21.77;14.00;;;;;;;;;;2080209;28;20017;-49
2024/02/01 02:54:14;;;;;;;22.77;14.05;;;;;;;;;;2080351;28;20845;-45
2024/02/01 02:55:16;;;;;;;25.15;14.88;;;;;;;;;;2080480;28;20033;-47
2024/02/01 02:56:17;;;;;;;27.58;15.07;;;;;;;;;;2087935;28;20013;-47
2024/02/01 02:57:19;;;;;;;22.02;14.02;;;;;;;;;;2096973;28;20032;-46
2024/02/01 02:58:20;;;;;;;24.10;14.45;;;;;;;;;;2088965;28;20484;-46
2024/02/01 02:59:22;;;;;;;25.23;14.90;;;;;;;;;;2089237;28;20040;-47
2024/02/01 03:00:23;;;;;;;22.13;14.02;;;;;;;;;;2089361;28;20527;-44
2024/02/01 03:01:26;;;;;;;25.55;14.13;;;;;;;;;;2082865;28;20107;-44
2024/02/01 03:02:27;;;;;;;24.30;14.25;;;;;;;;;;2087838;28;20416;-44
2024/02/01 03:03:29;;;;;;;24.98;14.40;;;;;;;;;;2083268;28;20057;-43
2024/02/01 03:04:30;;;;;;;23.17;13.93;;;;;;;;;;2080337;28;20056;-45
2024/02/01 03:05:31;;;;;;;22.75;13.45;;;;;;;;;;2080377;28;20021;-44
2024/02/01 03:06:32;;;;;;;21.52;13.52;;;;;;;;;;2088871;28;20423;-47
2024/02/01 03:07:34;;;;;;;23.92;13.75;;;;;;;;;;2089359;28;20036;-47
2024/02/01 03:08:38;;;;;;;22.42;13.32;;;;;;;;;;2089154;28;20970;-46
2024/02/01 03:09:39;;;;;;;25.67;14.48;;;;;;;;;;2085140;28;20020;-44
2024/02/01 03:10:41;;;;;;;21.63;13.25;;;;;;;;;;2083011;28;20197;-43
2024/02/01 03:11:42;;;;;;;22.58;13.55;;;;;;;;;;2081155;28;20033;-44
2024/02/01 03:12:43;;;;;;;23.73;13.70;;;;;;;;;;2080216;28;20028;-44
2024/02/01 03:13:47;;;;;;;23.63;13.15;;;;;;;;;;2080494;28;20535;-44
2024/02/01 03:14:49;;;;;;;20.23;13.50;;;;;;;;;;2080170;28;20030;-44
2024/02/01 03:15:51;;;;;;;26.33;13.55;;;;;;;;;;2080898;28;20033;-44
2024/02/01 03:16:52;;;;;;;20.85;13.27;;;;;;;;;;2089226;28;20036;-44
2024/02/01 03:17:53;;;;;;;22.15;13.40;;;;;;;;;;2087222;28;20500;-45
2024/02/01 03:18:57;;;;;;;21.00;13.45;;;;;;;;;;2085753;28;20104;-45
2024/02/01 03:19:59;;;;;;;22.33;13.82;;;;;;;;;;2088921;28;20025;-45
2024/02/01 03:21:00;;;;;;;23.98;14.18;;;;;;;;;;2089097;28;20033;-44
2024/02/01 03:22:02;;;;;;;23.30;13.38;;;;;;;;;;2089203;28;20107;-44
2024/02/01 03:23:07;;;;;;;22.90;14.65;;;;;;;;;;2080303;28;20580;-44
2024/02/01 03:24:08;;;;;;;23.05;13.15;;;;;;;;;;2080805;28;20100;-43
2024/02/01 03:25:10;;;;;;;21.35;12.75;;;;;;;;;;2089114;28;20029;-45
2024/02/01 03:26:12;;;;;;;20.48;12.43;;;;;;;;;;2088902;28;20387;-44
2024/02/01 03:27:14;;;;;;;24.35;13.05;;;;;;;;;;2089101;28;20024;-44
2024/02/01 03:28:15;;;;;;;23.17;13.43;;;;;;;;;;2080072;28;20025;-45
2024/02/01 03:29:17;;;;;;;20.63;13.45;;;;;;;;;;2088482;28;20124;-45
2024/02/01 03:30:18;;;;;;;23.15;13.88;;;;;;;;;;2096783;28;20059;-44
2024/02/01 03:31:20;;;;;;;24.17;12.25;;;;;;;;;;2089092;28;20021;-44
2024/02/01 03:32:29;;;;;;;21.95;13.88;;;;;;;;;;2082429;28;20040;-44
2024/02/01 03:33:37;;;;;;;23.15;13.30;;;;;;;;;;2089115;28;20021;-44
2024/02/01 03:34:42;;;;;;;25.35;13.30;;;;;;;;;;2088984;28;20025;-45
2024/02/01 03:35:43;;;;;;;20.40;13.05;;;;;;;;;;2081182;28;20036;-44
2024/02/01 03:36:44;;;;;;;21.38;13.10;;;;;;;;;;2088138;28;20514;-43
2024/02/01 03:37:45;;;;;;;21.75;12.38;;;;;;;;;;2089207;28;20021;-44
2024/02/01 03:38:47;;;;;;;20.05;12.93;;;;;;;;;;2088262;28;22199;-45
2024/02/01 03:39:48;;;;;;;19.55;11.70;;;;;;;;;;2088829;28;20048;-45
2024/02/01 03:40:49;;;;;;;23.40;13.20;;;;;;;;;;2089352;28;20048;-45
2024/02/01 03:41:51;;;;;;;21.80;12.85;;;;;;;;;;2088916;28;20083;-46
2024/02/01 03:42:53;;;;;;;19.58;12.55;;;;;;;;;;2089048;28;20036;-48
2024/02/01 03:43:54;;;;;;;20.17;11.30;;;;;;;;;;2089194;28;20075;-46
2024/02/01 03:44:55;;;;;;;18.90;12.10;;;;;;;;;;2088945;28;20024;-44
2024/02/01 03:45:57;;;;;;;19.20;12.43;;;;;;;;;;2080127;28;20370;-43
2024/02/01 03:46:58;;;;;;;25.33;13.65;;;;;;;;;;2080360;28;20147;-45
2024/02/01 03:48:00;;;;;;;22.50;13.10;;;;;;;;;;2088899;28;20043;-44
2024/02/01 03:49:01;;;;;;;21.77;12.68;;;;;;;;;;2088734;28;20126;-45
2024/02/01 03:50:08;;;;;;;21.95;12.02;;;;;;;;;;2081705;28;20455;-44
2024/02/01 03:51:09;;;;;;;21.45;12.25;;;;;;;;;;2086304;28;20080;-46
2024/02/01 03:52:11;;;;;;;19.40;11.63;;;;;;;;;;2088947;28;20020;-46
2024/02/01 03:53:12;;;;;;;19.38;12.40;;;;;;;;;;2089003;28;20036;-48
2024/02/01 03:54:15;;;;;;;21.75;12.80;;;;;;;;;;2079792;28;20433;-47
2024/02/01 03:55:16;;;;;;;20.40;12.38;;;;;;;;;;2080332;28;20048;-46
2024/02/01 03:56:23;;;;;;;20.58;12.25;;;;;;;;;;2088974;28;20025;-47
2024/02/01 03:57:25;;;;;;;21.20;12.73;;;;;;;;;;2088361;28;20039;-47
2024/02/01 03:58:26;;;;;;;20.40;11.93;;;;;;;;;;2088745;28;20450;-45
2024/02/01 03:59:27;;;;;;;19.90;11.95;;;;;;;;;;2088260;28;20400;-47
2024/02/01 04:00:30;;;;;;;17.75;11.63;;;;;;;;;;2088728;28;20025;-49
2024/02/01 04:01:31;;;;;;;17.60;11.30;;;;;;;;;;2079575;28;20117;-46
2024/02/01 04:02:32;;;;;;;20.52;12.18;;;;;;;;;;2079751;28;20022;-46
2024/02/01 04:03:37;;;;;;;19.65;11.25;;;;;;;;;;2089017;28;20083;-47
2024/02/01 04:04:38;;;;;;;19.00;11.20;;;;;;;;;;2088766;28;20033;-47
2024/02/01 04:05:40;;;;;;;22.73;12.02;;;;;;;;;;2079958;28;20034;-45
2024/02/01 04:06:41;;;;;;;20.35;11.18;;;;;;;;;;2080283;28;20479;-46
2024/02/01 04:07:43;;;;;;;18.92;12.10;;;;;;;;;;2088752;28;20023;-46
2024/02/01 04:08:44;;;;;;;19.60;11.80;;;;;;;;;;2088595;28;20496;-47
2024/02/01 04:09:46;;;;;;;17.33;11.88;;;;;;;;;;2088779;28;20025;-46
2024/02/01 04:10:47;;;;;;;23.05;12.05;;;;;;;;;;2088953;28;20021;-46
2024/02/01 04:11:49;;;;;;;21.63;12.75;;;;;;;;;;2089012;28;20025;-45
2024/02/01 04:12:50;;;;;;;20.30;11.88;;;;;;;;;;2088675;28;20017;-44
2024/02/01 04:13:51;;;;;;;19.83;11.50;;;;;;;;;;2088602;28;20476;-44
2024/02/01 04:14:52;;;;;;;17.17;11.48;;;;;;;;;;2088873;28;20021;-44
2024/02/01 04:15:53;;;;;;;23.80;11.68;;;;;;;;;;2087878;28;20025;-43
2024/02/01 04:16:55;;;;;;;16.75;11.38;;;;;;;;;;2088201;28;20021;-44
2024/02/01 04:17:57;;;;;;;18.80;11.77;;;;;;;;;;2082625;28;20397;-44
2024/02/01 04:18:58;;;;;;;20.98;11.50;;;;;;;;;;2082709;28;20437;-45
2024/02/01 04:19:59;;;;;;;19.25;12.23;;;;;;;;;;2088826;28;20025;-44
2024/02/01 04:21:01;;;;;;;19.35;11.55;;;;;;;;;;2088795;28;20025;-42
2024/02/01 04:22:02;;;;;;;17.75;11.27;;;;;;;;;;2088830;28;20033;-43
2024/02/01 04:23:03;;;;;;;19.48;12.25;;;;;;;;;;2088841;28;20017;-43
2024/02/01 04:24:05;;;;;;;22.40;11.93;;;;;;;;;;2088702;28;20033;-43
2024/02/01 04:25:09;;;;;;;20.80;12.48;;;;;;;;;;2088557;28;20579;-43
2024/02/01 04:26:15;;;;;;;20.30;11.25;;;;;;;;;;2088757;28;20021;-43
2024/02/01 04:27:18;;;;;;;17.90;11.07;;;;;;;;;;2088566;28;20025;-43
2024/02/01 04:28:19;;;;;;;17.23;10.52;;;;;;;;;;2088836;28;20400;-43
2024/02/01 04:29:20;;;;;;;21.42;11.95;;;;;;;;;;2088622;28;20488;-44
2024/02/01 04:30:25;;;;;;;20.75;11.70;;;;;;;;;;2088399;28;20027;-45
2024/02/01 04:31:27;;;;;;;18.27;11.30;;;;;;;;;;2088914;28;20072;-44
2024/02/01 04:32:28;;;;;;;18.80;11.25;;;;;;;;;;2088723;28;20044;-43
2024/02/01 04:33:29;;;;;;;21.27;12.07;;;;;;;;;;2088852;28;20062;-44
2024/02/01 04:34:33;;;;;;;19.83;12.50;;;;;;;;;;2087612;28;20071;-45
2024/02/01 04:35:35;;;;;;;19.00;11.93;;;;;;;;;;2088642;28;20558;-45
2024/02/01 04:36:36;;;;;;;19.25;11.65;;;;;;;;;;2088958;28;20017;-45
2024/02/01 04:37:37;;;;;;;19.77;11.93;;;;;;;;;;2079675;28;20052;-45
2024/02/01 04:38:40;;;;;;;21.25;12.07;;;;;;;;;;2079884;28;20389;-45
2024/02/01 04:39:42;;;;;;;16.92;11.50;;;;;;;;;;2088681;28;20025;-44
2024/02/01 04:40:43;;;;;;;20.95;12.57;;;;;;;;;;2088597;28;20021;-46
2024/02/01 04:41:44;;;;;;;20.30;11.30;;;;;;;;;;2088778;28;20549;-44
2024/02/01 04:42:51;;;;;;;20.08;10.80;;;;;;;;;;2079715;28;20017;-45
2024/02/01 04:43:52;;;;;;;19.23;10.95;;;;;;;;;;2080630;28;20392;-44
2024/02/01 04:44:57;;;;;;;19.23;10.90;;;;;;;;;;2088780;28;20049;-45
2024/02/01 04:45:59;;;;;;;18.35;10.93;;;;;;;;;;2079585;28;20018;-44
2024/02/01 04:47:00;;;;;;;19.38;11.98;;;;;;;;;;2079961;28;20017;-44
2024/02/01 04:48:03;;;;;;;21.00;12.00;;;;;;;;;;2080619;28;20021;-45
2024/02/01 04:49:11;;;;;;;18.42;11.10;;;;;;;;;;2088594;28;20387;-45
2024/02/01 04:50:13;;;;;;;19.48;11.73;;;;;;;;;;2088852;28;20678;-45
2024/02/01 04:51:14;;;;;;;19.38;11.32;;;;;;;;;;2090424;28;20051;-42
2024/02/01 04:52:15;;;;;;;18.50;11.20;;;;;;;;;;2090404;28;20024;-45
2024/02/01 04:53:16;;;;;;;17.98;11.18;;;;;;;;;;2090449;28;20147;-44
2024/02/01 04:54:18;;;;;;;19.35;11.00;;;;;;;;;;2090436;28;20500;-46
2024/02/01 04:55:19;;;;;;;18.85;10.80;;;;;;;;;;2090197;28;20013;-47
2024/02/01 04:56:22;;;;;;;18.13;11.18;;;;;;;;;;2090165;28;20031;-47
2024/02/01 04:57:24;;;;;;;21.40;11.65;;;;;;;;;;2090365;28;20024;-47
2024/02/01 04:58:25;;;;;;;18.27;11.75;;;;;;;;;;2090169;28;20415;-46
2024/02/01 04:59:26;;;;;;;22.48;11.93;;;;;;;;;;2090142;28;20120;-45
2024/02/01 05:00:28;;;;;;;20.30;12.25;;;;;;;;;;2089210;28;20082;-46
2024/02/01 05:01:31;;;;;;;17.65;11.38;;;;;;;;;;2081268;28;20071;-46
2024/02/01 05:02:32;;;;;;;19.70;11.70;;;;;;;;;;2081949;28;20055;-47
2024/02/01 05:03:33;;;;;;;22.75;11.70;;;;;;;;;;2090314;28;20021;-47
2024/02/01 05:04:35;;;;;;;20.23;12.40;;;;;;;;;;2089890;28;20055;-46
2024/02/01 05:05:36;;;;;;;21.38;12.10;;;;;;;;;;2090063;28;20039;-49
2024/02/01 05:06:37;;;;;;;19.08;11.35;;;;;;;;;;2090097;28;20017;-46
2024/02/01 05:07:39;;;;;;;19.63;10.90;;;;;;;;;;2081835;28;20113;-46
2024/02/01 05:08:41;;;;;;;20.45;11.05;;;;;;;;;;2081674;28;20224;-48
2024/02/01 05:09:42;;;;;;;18.63;10.70;;;;;;;;;;2083712;28;20338;-46
2024/02/01 05:10:44;;;;;;;19.15;11.82;;;;;;;;;;2084698;28;20014;-45
2024/02/01 05:11:45;;;;;;;19.30;11.20;;;;;;;;;;2090331;28;20419;-45
2024/02/01 05:12:46;;;;;;;18.00;10.63;;;;;;;;;;2089591;28;20415;-43
2024/02/01 05:13:47;;;;;;;20.90;11.15;;;;;;;;;;2090104;28;20094;-43
2024/02/01 05:14:49;;;;;;;19.08;10.77;;;;;;;;;;2089897;28;20074;-42
2024/02/01 05:15:50;;;;;;;18.35;11.93;;;;;;;;;;2089939;28;20036;-43
2024/02/01 05:16:52;;;;;;;16.65;10.40;;;;;;;;;;2090094;28;20605;-43
2024/02/01 05:17:53;;;;;;;19.73;11.23;;;;;;;;;;2089954;28;20064;-44
2024/02/01 05:18:54;;;;;;;20.38;11.25;;;;;;;;;;2089986;28;20024;-43
2024/02/01 05:19:59;;;;;;;17.45;10.60;;;;;;;;;;2090131;28;20471;-44
2024/02/01 05:21:00;;;;;;;18.45;10.63;;;;;;;;;;2089960;28;20029;-44
2024/02/01 05:22:01;;;;;;;17.73;10.95;;;;;;;;;;2081077;28;20504;-44
2024/02/01 05:23:03;;;;;;;17.15;11.10;;;;;;;;;;2081388;28;20048;-44
2024/02/01 05:24:05;;;;;;;18.38;10.40;;;;;;;;;;2089212;28;20057;-45
2024/02/01 05:25:15;;;;;;;15.88;10.25;;;;;;;;;;2089972;28;20454;-44
2024/02/01 05:26:16;;;;;;;;;;;;;;;;;;2082412;28;20420;-43
2024/02/01 05:27:20;;;;;;;16.85;10.32;;;;;;;;;;2087378;28;19904;-45
2024/02/01 05:28:22;;;;;;;19.40;10.13;;;;;;;;;;2081207;28;20026;-44
2024/02/01 05:29:25;;;;;;;17.63;10.50;;;;;;;;;;2081327;28;20548;-44
2024/02/01 05:30:26;;;;;;;18.17;11.38;;;;;;;;;;2081136;28;20033;-43
2024/02/01 05:31:27;;;;;;;18.05;11.05;;;;;;;;;;2089378;28;20033;-45
2024/02/01 05:32:29;;;;;;;18.95;10.25;;;;;;;;;;2089977;28;20107;-45
2024/02/01 05:33:30;;;;;;;16.90;10.85;;;;;;;;;;2089678;28;20419;-44
2024/02/01 05:34:31;;;;;;;16.83;10.40;;;;;;;;;;2089931;28;20033;-45
2024/02/01 05:35:33;;;;;;;16.58;10.77;;;;;;;;;;2089599;28;20020;-45
2024/02/01 05:36:35;;;;;;;16.17;10.07;;;;;;;;;;2089882;28;20479;-45
2024/02/01 05:37:36;;;;;;;17.38;10.70;;;;;;;;;;2081153;28;20033;-44
2024/02/01 05:38:40;;;;;;;18.20;10.40;;;;;;;;;;2081064;28;20350;-44
2024/02/01 05:39:44;;;;;;;18.15;10.07;;;;;;;;;;2090078;28;20017;-45
2024/02/01 05:40:45;;;;;;;18.92;10.60;;;;;;;;;;2090012;28;20013;-44
2024/02/01 05:41:47;;;;;;;14.55;9.75;;;;;;;;;;2086281;28;20033;-44
2024/02/01 05:42:48;;;;;;;16.85;10.23;;;;;;;;;;2081008;28;20045;-43
2024/02/01 05:43:49;;;;;;;18.13;8.95;;;;;;;;;;2080774;28;20021;-44
2024/02/01 05:44:51;;;;;;;16.40;10.55;;;;;;;;;;2085248;28;20021;-44
2024/02/01 05:45:52;;;;;;;16.30;9.68;;;;;;;;;;2086149;28;20020;-43
2024/02/01 05:46:56;;;;;;;14.82;9.70;;;;;;;;;;2089319;28;20048;-45
2024/02/01 05:47:58;;;;;;;19.55;9.45;;;;;;;;;;2089955;28;20028;-44
2024/02/01 05:48:59;;;;;;;19.35;10.18;;;;;;;;;;2090311;28;20024;-45
2024/02/01 05:50:01;;;;;;;18.05;9.80;;;;;;;;;;2089513;28;20020;-45
2024/02/01 05:51:03;;;;;;;19.13;9.85;;;;;;;;;;2089564;28;20029;-45
2024/02/01 05:52:05;;;;;;;16.38;9.18;;;;;;;;;;2090102;28;20025;-44
2024/02/01 05:53:09;;;;;;;16.63;9.57;;;;;;;;;;2088766;28;20083;-45
2024/02/01 05:54:10;;;;;;;14.32;9.35;;;;;;;;;;2081763;28;20056;-45
2024/02/01 05:55:15;;;;;;;13.55;9.13;;;;;;;;;;2080958;28;20416;-45
2024/02/01 05:56:16;;;;;;;16.00;9.60;;;;;;;;;;2081670;28;20025;-44
2024/02/01 05:57:18;;;;;;;16.58;9.75;;;;;;;;;;2089957;28;20222;-44
2024/02/01 05:58:19;;;;;;;17.77;9.52;;;;;;;;;;2089832;28;20044;-44
2024/02/01 05:59:20;;;;;;;15.13;9.60;;;;;;;;;;2089923;28;20082;-44
2024/02/01 06:00:22;;;;;;;17.13;9.38;;;;;;;;;;2089824;28;20441;-45
2024/02/01 06:01:24;;;;;;;17.60;9.48;;;;;;;;;;2089754;28;20033;-45